Time;durP1;ratioP1;P1;durP2;ratioP2;P2;SDS_P1;SDS_P2;PMS_P1;PMS_P2;Temp;Humidity;BMP_temperature;BMP_pressure;BME280_temperature;BME280_humidity;BME280_pressure;Samples;Min_cycle;Max_cycle;Signal;HPM_P1;HPM_P2
2021/03/19 00:00:35;;;;;;;1.50;1.40;;;2.90;98.00;;;;;;5071751;28;20529;-70
2021/03/19 00:03:03;;;;;;;2.40;1.43;;;2.90;98.00;;;;;;5069970;28;20480;-70
2021/03/19 00:05:30;;;;;;;1.20;1.13;;;3.00;98.00;;;;;;5071589;28;20484;-71
2021/03/19 00:07:58;;;;;;;1.60;1.20;;;3.00;98.00;;;;;;5069951;28;20966;-70
2021/03/19 00:10:26;;;;;;;3.20;1.50;;;3.10;98.00;;;;;;5071623;28;20531;-70
2021/03/19 00:12:54;;;;;;;4.23;2.03;;;3.00;98.00;;;;;;5069995;28;20512;-70
2021/03/19 00:15:22;;;;;;;1.70;1.43;;;2.90;98.00;;;;;;5071668;28;20978;-70
2021/03/19 00:17:49;;;;;;;2.43;2.33;;;2.90;98.00;;;;;;5068537;28;20618;-70
2021/03/19 00:20:19;;;;;;;1.20;1.10;;;2.80;98.00;;;;;;5072167;28;20457;-70
2021/03/19 00:22:45;;;;;;;1.67;1.57;;;2.70;98.00;;;;;;5070312;28;20808;-70
2021/03/19 00:25:13;;;;;;;2.90;1.93;;;2.80;98.00;;;;;;5072133;28;20472;-70
2021/03/19 00:27:39;;;;;;;1.30;1.30;;;2.90;98.00;;;;;;5070721;28;20556;-70
2021/03/19 00:30:11;;;;;;;1.33;1.30;;;2.80;98.00;;;;;;5071832;28;20509;-70
2021/03/19 00:32:38;;;;;;;1.20;1.00;;;2.80;98.00;;;;;;5069738;28;20509;-70
2021/03/19 00:35:06;;;;;;;3.20;2.20;;;2.90;98.00;;;;;;5071139;28;20480;-70
2021/03/19 00:37:34;;;;;;;2.03;1.50;;;3.00;98.00;;;;;;5069617;28;20457;-70
2021/03/19 00:40:00;;;;;;;1.30;1.10;;;3.00;98.00;;;;;;5071069;28;20548;-70
2021/03/19 00:42:27;;;;;;;1.30;1.23;;;3.00;98.00;;;;;;5069466;28;20947;-70
2021/03/19 00:44:53;;;;;;;2.20;1.60;;;3.00;98.00;;;;;;5071045;28;20846;-70
2021/03/19 00:47:20;;;;;;;1.40;1.20;;;2.90;98.00;;;;;;5069213;28;20472;-70
2021/03/19 00:49:46;;;;;;;3.00;1.87;;;2.80;98.00;;;;;;5070954;28;20456;-70
2021/03/19 00:52:13;;;;;;;5.20;3.13;;;2.90;98.00;;;;;;5069418;28;20496;-69
2021/03/19 00:54:41;;;;;;;1.40;1.30;;;3.00;98.00;;;;;;5071064;28;20468;-70
2021/03/19 00:57:07;;;;;;;1.93;1.40;;;3.10;98.00;;;;;;5069296;28;20485;-70
2021/03/19 00:59:34;;;;;;;3.50;1.43;;;3.10;98.00;;;;;;5071163;28;20460;-69
2021/03/19 01:02:01;;;;;;;1.97;1.90;;;3.10;98.00;;;;;;5069145;28;20510;-70
2021/03/19 01:04:27;;;;;;;1.20;1.20;;;3.10;98.00;;;;;;5071031;28;20462;-70
2021/03/19 01:06:54;;;;;;;1.93;1.57;;;3.30;98.00;;;;;;5069752;28;20469;-69
2021/03/19 01:09:20;;;;;;;2.03;1.73;;;3.30;98.00;;;;;;5069829;28;20472;-71
2021/03/19 01:11:48;;;;;;;2.17;1.43;;;3.20;98.00;;;;;;5071021;28;20899;-70
2021/03/19 01:14:16;;;;;;;1.97;1.57;;;3.20;98.00;;;;;;5069336;28;20484;-70
2021/03/19 01:16:43;;;;;;;1.20;1.10;;;3.20;98.00;;;;;;5070682;28;20452;-69
2021/03/19 01:19:09;;;;;;;3.17;1.73;;;3.10;98.00;;;;;;5069136;28;20490;-69
2021/03/19 01:21:37;;;;;;;1.30;1.30;;;3.10;98.00;;;;;;5070620;28;20461;-70
2021/03/19 01:24:04;;;;;;;1.40;1.40;;;3.10;98.00;;;;;;5069032;28;20531;-70
2021/03/19 01:26:31;;;;;;;1.80;1.30;;;3.20;98.00;;;;;;5073220;28;20505;-70
2021/03/19 01:28:58;;;;;;;1.63;1.30;;;3.20;98.00;;;;;;5073110;28;20851;-70
2021/03/19 01:31:25;;;;;;;1.77;1.70;;;3.20;98.00;;;;;;5074482;28;20480;-70
2021/03/19 01:33:52;;;;;;;2.10;1.67;;;3.20;98.00;;;;;;5073171;28;20537;-70
2021/03/19 01:36:18;;;;;;;1.30;1.20;;;3.20;98.00;;;;;;5073334;28;20464;-70
2021/03/19 01:38:45;;;;;;;2.70;2.07;;;3.20;98.00;;;;;;5072673;28;20448;-70
2021/03/19 01:41:12;;;;;;;1.40;1.10;;;3.10;98.00;;;;;;5074366;28;20549;-70
2021/03/19 01:43:39;;;;;;;1.73;1.53;;;3.00;98.00;;;;;;5072936;28;20542;-70
2021/03/19 01:46:44;;;;;;;2.70;2.00;;;3.00;98.00;;;;;;5074069;28;20522;-70
2021/03/19 01:49:48;;;;;;;1.40;1.23;;;2.90;98.00;;;;;;5072669;28;20464;-70
2021/03/19 01:52:53;;;;;;;1.57;1.40;;;3.00;98.00;;;;;;5072520;28;20484;-70
2021/03/19 01:55:57;;;;;;;1.30;1.30;;;3.00;98.00;;;;;;5074184;28;20457;-70
2021/03/19 01:59:00;;;;;;;1.97;1.63;;;2.90;98.00;;;;;;5072551;28;20557;-69
2021/03/19 02:02:04;;;;;;;2.60;2.00;;;3.00;98.00;;;;;;5073911;28;20838;-70
2021/03/19 02:05:07;;;;;;;1.47;1.43;;;3.00;98.00;;;;;;5074087;28;20460;-70
2021/03/19 02:08:11;;;;;;;1.20;1.00;;;3.20;98.00;;;;;;5072298;28;20836;-71
2021/03/19 02:11:15;;;;;;;1.27;1.23;;;3.20;98.00;;;;;;5074278;28;20456;-69
2021/03/19 02:14:18;;;;;;;1.30;1.20;;;3.10;98.00;;;;;;5072280;28;20887;-70
2021/03/19 02:17:23;;;;;;;1.83;1.73;;;3.10;98.00;;;;;;5073808;28;20865;-70
2021/03/19 02:20:27;;;;;;;1.93;1.57;;;3.10;98.00;;;;;;5073800;28;20973;-70
2021/03/19 02:23:30;;;;;;;2.63;1.80;;;3.10;98.00;;;;;;5071969;28;20456;-70
2021/03/19 02:26:34;;;;;;;1.30;1.10;;;3.00;98.00;;;;;;5073700;28;20459;-70
2021/03/19 02:29:38;;;;;;;3.20;2.17;;;3.00;98.00;;;;;;5072191;28;20463;-69
2021/03/19 02:32:12;;;;;;;1.60;1.60;;;2.90;98.00;;;;;;5072500;28;20986;-71
2021/03/19 02:34:43;;;;;;;1.30;1.20;;;2.90;98.00;;;;;;5073669;28;20460;-70
2021/03/19 02:37:11;;;;;;;1.20;1.20;;;2.90;98.00;;;;;;5070645;28;20503;-70
2021/03/19 02:39:38;;;;;;;1.20;1.00;;;2.90;98.00;;;;;;5073588;28;20562;-70
2021/03/19 02:42:07;;;;;;;1.20;1.00;;;2.90;98.00;;;;;;5073351;28;20467;-70
2021/03/19 02:44:34;;;;;;;2.00;1.80;;;3.00;98.00;;;;;;5073432;28;20465;-70
2021/03/19 02:47:01;;;;;;;1.93;1.30;;;3.10;98.00;;;;;;5073509;28;20465;-70
2021/03/19 02:49:29;;;;;;;1.80;1.33;;;3.10;98.00;;;;;;5070954;28;20449;-70
2021/03/19 02:51:57;;;;;;;1.20;1.00;;;3.00;98.00;;;;;;5072137;28;20894;-70
2021/03/19 02:54:24;;;;;;;3.13;1.63;;;3.10;98.00;;;;;;5071610;28;20461;-70
2021/03/19 02:56:51;;;;;;;1.90;1.57;;;3.10;98.00;;;;;;5072951;28;20475;-69
2021/03/19 02:59:18;;;;;;;2.47;1.83;;;3.10;98.00;;;;;;5071492;28;20472;-70
2021/03/19 03:01:46;;;;;;;3.03;1.90;;;3.10;98.00;;;;;;5072812;28;20461;-70
2021/03/19 03:04:13;;;;;;;1.77;1.53;;;3.00;98.00;;;;;;5071130;28;20465;-69
2021/03/19 03:06:44;;;;;;;2.27;1.60;;;3.00;98.00;;;;;;5072899;28;20460;-71
2021/03/19 03:09:12;;;;;;;3.33;1.20;;;2.90;98.00;;;;;;5071104;28;20572;-70
2021/03/19 03:11:40;;;;;;;2.87;1.83;;;2.80;98.00;;;;;;5072554;28;21042;-70
2021/03/19 03:14:11;;;;;;;2.23;1.77;;;2.60;98.00;;;;;;5069676;28;20465;-70
2021/03/19 03:16:38;;;;;;;1.70;1.60;;;2.50;98.00;;;;;;5071386;28;20460;-70
2021/03/19 03:19:06;;;;;;;2.40;1.67;;;2.50;98.00;;;;;;5071133;28;20846;-70
2021/03/19 03:21:32;;;;;;;1.40;1.37;;;2.60;98.00;;;;;;5071369;28;20510;-70
2021/03/19 03:24:01;;;;;;;1.50;1.40;;;2.60;98.00;;;;;;5070867;28;20471;-69
2021/03/19 03:26:28;;;;;;;4.90;2.90;;;2.70;98.00;;;;;;5072556;28;20653;-69
2021/03/19 03:28:55;;;;;;;3.20;1.43;;;2.70;98.00;;;;;;5071159;28;20461;-70
2021/03/19 03:31:21;;;;;;;2.57;1.60;;;2.80;98.00;;;;;;5072488;28;20465;-69
2021/03/19 03:33:48;;;;;;;1.23;1.10;;;2.70;98.00;;;;;;5070715;28;20630;-70
2021/03/19 03:36:15;;;;;;;1.60;1.50;;;2.60;98.00;;;;;;5072377;28;20510;-71
2021/03/19 03:38:42;;;;;;;2.37;1.37;;;2.60;98.00;;;;;;5070561;28;20456;-70
2021/03/19 03:41:13;;;;;;;1.70;1.60;;;2.70;98.00;;;;;;5072194;28;20882;-70
2021/03/19 03:43:39;;;;;;;1.20;1.10;;;2.70;98.00;;;;;;5070342;28;20464;-69
2021/03/19 03:46:10;;;;;;;1.23;1.20;;;2.70;98.00;;;;;;5071907;28;20493;-69
2021/03/19 03:48:37;;;;;;;2.13;2.00;;;2.70;98.00;;;;;;5068750;28;20453;-70
2021/03/19 03:51:07;;;;;;;1.30;1.27;;;2.60;98.00;;;;;;5070698;28;20464;-69
2021/03/19 03:53:34;;;;;;;1.30;1.20;;;2.50;98.00;;;;;;5070164;28;20457;-70
2021/03/19 03:56:01;;;;;;;1.43;1.27;;;2.50;98.00;;;;;;5071934;28;20457;-69
2021/03/19 03:58:28;;;;;;;1.70;1.30;;;2.50;98.00;;;;;;5069982;28;20460;-70
2021/03/19 04:00:56;;;;;;;1.50;1.50;;;2.50;98.00;;;;;;5071791;28;20489;-69
2021/03/19 04:03:22;;;;;;;2.50;1.47;;;2.50;98.00;;;;;;5069917;28;20472;-70
2021/03/19 04:05:50;;;;;;;2.97;2.00;;;2.60;98.00;;;;;;5071862;28;20457;-70
2021/03/19 04:08:19;;;;;;;1.93;1.50;;;2.60;98.00;;;;;;5070100;28;20508;-69
2021/03/19 04:10:47;;;;;;;1.20;1.20;;;2.60;98.00;;;;;;5071731;28;20827;-70
2021/03/19 04:13:14;;;;;;;3.00;2.60;;;2.70;98.00;;;;;;5069689;28;20523;-70
2021/03/19 04:15:42;;;;;;;2.67;1.67;;;2.70;98.00;;;;;;5071637;28;20827;-69
2021/03/19 04:18:13;;;;;;;1.50;1.30;;;2.70;98.00;;;;;;5069973;28;20472;-69
2021/03/19 04:20:40;;;;;;;8.03;2.00;;;2.80;98.00;;;;;;5071281;28;20493;-70
2021/03/19 04:23:07;;;;;;;2.27;1.77;;;2.70;98.00;;;;;;5069498;28;20484;-69
2021/03/19 04:25:34;;;;;;;1.30;1.20;;;2.70;98.00;;;;;;5071337;28;20543;-69
2021/03/19 04:28:03;;;;;;;2.27;2.07;;;2.80;98.00;;;;;;5069687;28;20456;-70
2021/03/19 04:30:34;;;;;;;1.40;1.30;;;2.70;98.00;;;;;;5071033;28;20456;-70
2021/03/19 04:33:02;;;;;;;1.43;1.43;;;2.70;98.00;;;;;;5069374;28;20583;-69
2021/03/19 04:35:30;;;;;;;2.30;1.93;;;2.70;98.00;;;;;;5071117;28;20461;-70
2021/03/19 04:38:00;;;;;;;1.73;1.30;;;2.80;98.00;;;;;;5068376;28;20495;-70
2021/03/19 04:40:27;;;;;;;1.60;1.53;;;2.90;98.00;;;;;;5071073;28;20461;-70
2021/03/19 04:42:55;;;;;;;3.50;2.43;;;2.90;98.00;;;;;;5069439;28;20459;-70
2021/03/19 04:45:23;;;;;;;1.67;1.20;;;2.90;98.00;;;;;;5070993;28;20522;-70
2021/03/19 04:47:52;;;;;;;2.77;1.13;;;3.00;98.00;;;;;;5069304;28;20465;-70
2021/03/19 04:50:22;;;;;;;1.20;1.10;;;2.80;98.00;;;;;;5070922;28;20445;-70
2021/03/19 04:52:49;;;;;;;1.30;1.10;;;2.90;98.00;;;;;;5069261;28;20524;-69
2021/03/19 04:55:17;;;;;;;4.13;2.73;;;3.00;98.00;;;;;;5070829;28;20484;-70
2021/03/19 04:57:43;;;;;;;1.67;1.57;;;2.90;98.00;;;;;;5069406;28;20837;-70
2021/03/19 05:00:13;;;;;;;3.00;1.70;;;2.90;98.00;;;;;;5070234;28;20456;-69
2021/03/19 05:02:42;;;;;;;1.20;1.10;;;2.90;98.00;;;;;;5069304;28;20784;-69
2021/03/19 05:05:12;;;;;;;2.00;1.53;;;2.90;98.00;;;;;;5070867;28;20802;-70
2021/03/19 05:07:39;;;;;;;1.57;1.50;;;2.80;98.00;;;;;;5068816;28;20829;-69
2021/03/19 05:10:07;;;;;;;1.73;1.47;;;2.90;98.00;;;;;;5069567;28;20449;-69
2021/03/19 05:12:34;;;;;;;1.80;1.57;;;2.90;98.00;;;;;;5069018;28;20523;-69
2021/03/19 05:15:02;;;;;;;1.50;1.50;;;2.80;98.00;;;;;;5070681;28;20550;-70
2021/03/19 05:17:30;;;;;;;2.73;1.63;;;2.80;98.00;;;;;;5069043;28;21160;-69
2021/03/19 05:19:57;;;;;;;5.00;2.07;;;2.70;98.00;;;;;;5070884;28;20453;-70
2021/03/19 05:22:24;;;;;;;1.70;1.57;;;2.80;98.00;;;;;;5069129;28;20453;-71
2021/03/19 05:24:51;;;;;;;1.50;1.33;;;2.90;98.00;;;;;;5070994;28;20941;-70
2021/03/19 05:27:18;;;;;;;1.83;1.70;;;2.90;98.00;;;;;;5070736;28;20464;-69
2021/03/19 05:29:45;;;;;;;1.50;1.40;;;2.90;98.00;;;;;;5068976;28;20801;-69
2021/03/19 05:32:12;;;;;;;1.20;1.10;;;2.80;98.00;;;;;;5070668;28;20480;-70
2021/03/19 05:34:42;;;;;;;1.20;1.10;;;2.80;98.00;;;;;;5067759;28;20479;-70
2021/03/19 05:37:08;;;;;;;1.70;1.60;;;2.70;98.00;;;;;;5070871;28;20453;-69
2021/03/19 05:39:35;;;;;;;1.27;1.23;;;2.60;98.00;;;;;;5069121;28;20480;-70
2021/03/19 05:42:03;;;;;;;1.83;1.50;;;2.50;98.00;;;;;;5070645;28;20472;-69
2021/03/19 05:44:29;;;;;;;2.53;2.10;;;2.60;98.00;;;;;;5068616;28;20492;-69
2021/03/19 05:47:01;;;;;;;1.30;1.30;;;2.60;98.00;;;;;;5069360;28;20468;-69
2021/03/19 05:49:34;;;;;;;5.50;2.70;;;2.40;98.00;;;;;;5069759;28;20510;-70
2021/03/19 05:52:13;;;;;;;2.07;1.73;;;2.30;98.00;;;;;;5070460;28;20488;-70
2021/03/19 05:54:41;;;;;;;2.53;2.00;;;2.10;98.00;;;;;;5069794;28;20511;-70
2021/03/19 05:57:21;;;;;;;4.93;2.50;;;2.10;98.00;;;;;;5070347;28;20469;-70
2021/03/19 05:59:52;;;;;;;1.47;1.40;;;2.20;98.00;;;;;;5069122;28;21080;-70
2021/03/19 06:02:25;;;;;;;1.70;1.60;;;2.30;98.00;;;;;;5070409;28;20464;-69
2021/03/19 06:05:06;;;;;;;1.57;1.20;;;2.40;98.00;;;;;;5069751;28;20811;-69
2021/03/19 06:07:41;;;;;;;1.20;1.10;;;2.50;98.00;;;;;;5068529;28;20466;-69
2021/03/19 06:10:31;;;;;;;1.50;1.40;;;2.60;98.00;;;;;;5070142;28;20487;-70
2021/03/19 06:13:21;;;;;;;1.73;1.73;;;2.70;98.00;;;;;;5072347;28;20487;-69
2021/03/19 06:15:49;;;;;;;4.03;1.80;;;2.60;98.00;;;;;;5073929;28;20471;-69
2021/03/19 06:18:24;;;;;;;1.30;1.10;;;2.50;98.00;;;;;;5072285;28;20855;-69
2021/03/19 06:21:01;;;;;;;2.13;1.60;;;2.40;98.00;;;;;;5073634;28;20459;-70
2021/03/19 06:23:29;;;;;;;1.20;1.00;;;2.30;98.00;;;;;;5072007;28;20602;-69
2021/03/19 06:26:01;;;;;;;1.90;1.60;;;2.20;98.00;;;;;;5073753;28;20471;-69
2021/03/19 06:28:31;;;;;;;1.30;1.27;;;2.10;98.00;;;;;;5072107;28;20965;-70
2021/03/19 06:31:19;;;;;;;1.20;1.00;;;2.10;98.00;;;;;;5072422;28;20460;-70
2021/03/19 06:33:46;;;;;;;1.20;1.00;;;2.10;98.00;;;;;;5072079;28;20877;-70
2021/03/19 06:36:19;;;;;;;1.77;1.67;;;2.10;98.00;;;;;;5073713;28;20491;-69
2021/03/19 06:38:51;;;;;;;1.20;1.10;;;2.10;98.00;;;;;;5071877;28;20472;-70
2021/03/19 06:41:23;;;;;;;1.40;1.30;;;2.20;98.00;;;;;;5073682;28;21079;-68
2021/03/19 06:43:53;;;;;;;4.03;1.83;;;2.40;98.00;;;;;;5072022;28;20464;-69
2021/03/19 06:46:25;;;;;;;7.57;2.80;;;2.70;98.00;;;;;;5073296;28;20468;-69
2021/03/19 06:49:02;;;;;;;1.20;1.10;;;2.90;98.00;;;;;;5071792;28;20457;-68
2021/03/19 06:51:31;;;;;;;3.57;2.40;;;2.90;98.00;;;;;;5073160;28;20457;-69
2021/03/19 06:54:01;;;;;;;1.60;1.50;;;2.90;98.00;;;;;;5070059;28;20468;-70
2021/03/19 06:56:28;;;;;;;3.30;1.83;;;2.90;98.00;;;;;;5072885;28;20463;-68
2021/03/19 06:58:56;;;;;;;1.83;1.33;;;3.00;98.00;;;;;;5071336;28;20489;-69
2021/03/19 07:01:35;;;;;;;1.30;1.20;;;3.00;98.00;;;;;;5072858;28;20464;-69
2021/03/19 07:04:50;;;;;;;2.80;2.30;;;3.10;98.00;;;;;;5071100;28;20547;-69
2021/03/19 07:07:47;;;;;;;2.07;1.70;;;3.30;98.00;;;;;;5072742;28;20468;-69
2021/03/19 07:10:52;;;;;;;2.43;1.80;;;3.10;98.00;;;;;;5071525;28;20961;-69
2021/03/19 07:13:51;;;;;;;1.87;1.80;;;3.20;98.00;;;;;;5027900;28;20494;-69
2021/03/19 07:16:20;;;;;;;1.40;1.30;;;3.40;98.00;;;;;;4997963;28;20469;-69
2021/03/19 07:19:11;;;;;;;1.30;1.27;;;3.50;98.00;;;;;;5058385;28;20449;-69
2021/03/19 07:22:08;;;;;;;1.87;1.50;;;3.60;98.00;;;;;;5070191;28;20465;-70
2021/03/19 07:25:12;;;;;;;1.87;1.30;;;3.70;98.00;;;;;;5070882;28;20460;-70
2021/03/19 07:27:58;;;;;;;1.77;1.70;;;3.60;98.00;;;;;;5070307;28;20461;-68
2021/03/19 07:30:30;;;;;;;1.67;1.37;;;3.80;98.00;;;;;;5072356;28;20453;-69
2021/03/19 07:33:27;;;;;;;1.60;1.40;;;3.90;98.00;;;;;;5070458;28;20539;-69
2021/03/19 07:36:09;;;;;;;2.33;1.63;;;3.80;98.00;;;;;;5072114;28;20457;-69
2021/03/19 07:39:02;;;;;;;1.90;1.73;;;3.60;98.00;;;;;;5070223;28;20508;-70
2021/03/19 07:41:46;;;;;;;1.20;1.07;;;3.70;98.00;;;;;;5072093;28;20955;-69
2021/03/19 07:44:26;;;;;;;1.30;1.30;;;3.50;98.00;;;;;;5070194;28;20457;-69
2021/03/19 07:47:27;;;;;;;3.67;2.10;;;3.50;98.00;;;;;;5071807;28;20522;-69
2021/03/19 07:50:11;;;;;;;2.80;2.30;;;3.60;98.00;;;;;;5043357;28;20784;-69
2021/03/19 07:52:51;;;;;;;2.90;1.73;;;3.70;98.00;;;;;;5070746;28;20481;-69
2021/03/19 07:55:22;;;;;;;5.00;1.83;;;3.70;98.00;;;;;;5071728;28;20457;-69
2021/03/19 07:57:57;;;;;;;2.90;2.43;;;3.90;98.00;;;;;;5070042;28;20465;-69
2021/03/19 08:00:28;;;;;;;1.57;1.30;;;4.10;98.00;;;;;;5071843;28;20496;-69
2021/03/19 08:03:11;;;;;;;3.70;2.60;;;4.20;98.00;;;;;;5070222;28;20459;-69
2021/03/19 08:05:45;;;;;;;1.73;1.47;;;4.20;98.00;;;;;;5071673;28;20461;-70
2021/03/19 08:08:23;;;;;;;2.90;1.63;;;4.30;98.00;;;;;;5069554;28;20488;-70
2021/03/19 08:11:02;;;;;;;1.67;1.63;;;4.20;98.00;;;;;;5071528;28;20472;-70
2021/03/19 08:13:36;;;;;;;1.20;1.10;;;4.30;98.00;;;;;;5069594;28;21002;-70
2021/03/19 08:16:09;;;;;;;1.20;1.20;;;4.40;98.00;;;;;;5070135;28;20456;-70
2021/03/19 08:18:43;;;;;;;1.87;1.57;;;4.50;98.00;;;;;;5068533;28;20457;-70
2021/03/19 08:21:26;;;;;;;1.83;1.50;;;4.60;98.00;;;;;;5071061;28;20458;-70
2021/03/19 08:24:03;;;;;;;1.37;1.30;;;4.60;98.00;;;;;;5069505;28;20508;-70
2021/03/19 08:26:42;;;;;;;1.57;1.53;;;4.50;98.00;;;;;;5071142;28;20480;-70
2021/03/19 08:29:20;;;;;;;5.60;2.67;;;4.40;98.00;;;;;;5069618;28;20510;-70
2021/03/19 08:31:51;;;;;;;1.20;1.10;;;4.50;98.00;;;;;;5069714;28;20522;-71
2021/03/19 08:34:23;;;;;;;1.20;1.10;;;4.40;98.00;;;;;;5069021;28;20519;-70
2021/03/19 08:36:53;;;;;;;1.70;1.43;;;4.20;98.00;;;;;;5071194;28;20459;-70
2021/03/19 08:39:28;;;;;;;3.13;1.83;;;4.10;98.00;;;;;;5069401;28;20457;-70
2021/03/19 08:42:00;;;;;;;1.20;1.20;;;4.20;98.00;;;;;;5071016;28;20962;-69
2021/03/19 08:44:35;;;;;;;1.60;1.50;;;4.30;98.00;;;;;;5068246;28;20944;-70
2021/03/19 08:47:13;;;;;;;1.40;1.10;;;4.20;98.00;;;;;;5069568;28;20465;-69
2021/03/19 08:49:43;;;;;;;1.50;1.47;;;4.10;98.00;;;;;;5069132;28;20453;-69
2021/03/19 08:52:28;;;;;;;2.33;1.87;;;4.10;98.00;;;;;;5069344;28;20477;-70
2021/03/19 08:55:28;;;;;;;1.50;1.43;;;4.40;98.00;;;;;;5069384;28;20458;-70
2021/03/19 08:57:57;;;;;;;2.40;2.20;;;4.50;98.00;;;;;;5069269;28;20472;-70
2021/03/19 09:00:47;;;;;;;1.60;1.50;;;4.50;98.00;;;;;;5070736;28;20521;-71
2021/03/19 09:03:47;;;;;;;2.43;1.53;;;4.70;98.00;;;;;;5068604;28;20461;-70
2021/03/19 09:06:15;;;;;;;1.50;1.33;;;4.80;98.00;;;;;;5070437;28;20464;-70
2021/03/19 09:09:36;;;;;;;2.50;1.77;;;4.60;98.00;;;;;;5068574;28;20457;-70
2021/03/19 09:12:20;;;;;;;1.20;1.10;;;4.50;98.00;;;;;;5054031;28;20492;-70
2021/03/19 09:15:06;;;;;;;1.30;1.10;;;4.60;98.00;;;;;;5068968;28;20458;-70
2021/03/19 09:18:02;;;;;;;1.20;1.07;;;4.60;98.00;;;;;;5070521;28;20457;-70
2021/03/19 09:20:47;;;;;;;1.30;1.20;;;4.60;98.00;;;;;;5066148;28;20489;-70
2021/03/19 09:23:52;;;;;;;1.30;1.10;;;4.60;98.00;;;;;;5059561;28;20522;-70
2021/03/19 09:26:45;;;;;;;1.30;1.10;;;4.40;98.00;;;;;;5070711;28;20463;-70
2021/03/19 09:29:41;;;;;;;1.90;1.30;;;4.20;98.00;;;;;;5068957;28;20504;-69
2021/03/19 09:32:39;;;;;;;1.30;1.10;;;4.30;98.00;;;;;;5070696;28;20537;-70
2021/03/19 09:35:32;;;;;;;1.20;1.10;;;4.30;98.00;;;;;;5068688;28;20464;-69
2021/03/19 09:38:00;;;;;;;1.20;1.10;;;4.20;98.00;;;;;;5068606;28;20460;-69
2021/03/19 09:40:43;;;;;;;2.73;1.87;;;4.30;98.00;;;;;;5070834;28;21102;-71
2021/03/19 09:43:32;;;;;;;2.73;1.43;;;4.20;98.00;;;;;;5068859;28;20465;-70
2021/03/19 09:46:06;;;;;;;1.40;1.20;;;4.20;98.00;;;;;;5071456;28;20472;-71
2021/03/19 09:48:35;;;;;;;1.97;1.60;;;4.20;98.00;;;;;;5072641;28;20456;-71
2021/03/19 09:51:28;;;;;;;2.37;1.87;;;4.30;98.00;;;;;;5074624;28;20935;-69
2021/03/19 09:53:55;;;;;;;1.87;1.60;;;4.30;98.00;;;;;;5072310;28;20866;-70
2021/03/19 09:56:29;;;;;;;1.50;1.40;;;4.30;98.00;;;;;;5074262;28;20521;-70
2021/03/19 09:58:58;;;;;;;1.47;1.20;;;4.40;98.00;;;;;;5072133;28;20464;-70
2021/03/19 10:01:43;;;;;;;2.27;1.93;;;4.60;98.00;;;;;;5074262;28;20472;-70
2021/03/19 10:04:12;;;;;;;3.33;2.47;;;4.50;98.00;;;;;;5072788;28;20485;-70
2021/03/19 10:06:44;;;;;;;1.20;1.10;;;4.30;98.00;;;;;;5074138;28;20445;-68
2021/03/19 10:09:17;;;;;;;1.20;1.00;;;4.30;98.00;;;;;;5071987;28;20602;-68
2021/03/19 10:11:54;;;;;;;1.87;1.77;;;4.30;98.00;;;;;;5073904;28;20528;-68
2021/03/19 10:14:25;;;;;;;1.63;1.27;;;4.40;98.00;;;;;;5070942;28;20457;-69
2021/03/19 10:17:05;;;;;;;1.20;1.17;;;4.50;98.00;;;;;;5073786;28;20460;-70
2021/03/19 10:19:35;;;;;;;1.63;1.53;;;4.50;98.00;;;;;;5072140;28;20476;-69
2021/03/19 10:22:02;;;;;;;1.57;1.47;;;4.50;98.00;;;;;;5073768;28;20466;-70
2021/03/19 10:24:29;;;;;;;1.20;1.07;;;4.80;98.00;;;;;;5071777;28;20469;-69
2021/03/19 10:27:00;;;;;;;2.70;1.63;;;4.90;98.00;;;;;;5073754;28;20464;-70
2021/03/19 10:29:29;;;;;;;1.63;1.20;;;4.90;98.00;;;;;;5071874;28;20452;-70
2021/03/19 10:31:59;;;;;;;1.30;1.13;;;4.90;98.00;;;;;;5073440;28;20459;-70
2021/03/19 10:34:38;;;;;;;1.20;1.00;;;5.00;98.00;;;;;;5071825;28;20472;-69
2021/03/19 10:37:12;;;;;;;1.90;1.43;;;5.00;98.00;;;;;;5073458;28;20887;-69
2021/03/19 10:39:47;;;;;;;1.40;1.30;;;5.00;98.00;;;;;;5071478;28;20453;-69
2021/03/19 10:42:22;;;;;;;1.20;0.90;;;5.00;98.00;;;;;;5073455;28;20524;-70
2021/03/19 10:44:58;;;;;;;1.20;0.90;;;4.90;98.00;;;;;;5071538;28;20464;-69
2021/03/19 10:47:31;;;;;;;1.20;0.97;;;4.90;98.00;;;;;;5073241;28;20829;-70
2021/03/19 10:50:00;;;;;;;1.20;1.10;;;4.90;98.00;;;;;;5071546;28;20970;-69
2021/03/19 10:52:32;;;;;;;1.77;1.33;;;4.90;98.00;;;;;;5073218;28;20514;-70
2021/03/19 10:55:04;;;;;;;1.20;0.90;;;5.00;98.00;;;;;;5072365;28;20510;-69
2021/03/19 10:57:35;;;;;;;1.20;0.90;;;5.10;98.00;;;;;;5072354;28;20860;-69
2021/03/19 11:00:32;;;;;;;1.20;1.00;;;5.10;98.00;;;;;;5072016;28;20518;-71
2021/03/19 11:03:01;;;;;;;1.20;0.90;;;5.10;98.00;;;;;;5071834;28;20612;-70
2021/03/19 11:05:31;;;;;;;1.20;1.00;;;5.10;98.00;;;;;;5073314;28;20502;-70
2021/03/19 11:07:58;;;;;;;1.50;1.20;;;5.20;98.00;;;;;;5073010;28;20519;-69
2021/03/19 11:10:27;;;;;;;1.20;1.00;;;5.10;98.00;;;;;;5073412;28;20528;-70
2021/03/19 11:12:57;;;;;;;1.20;0.90;;;5.10;98.00;;;;;;5073103;28;20492;-70
2021/03/19 11:15:39;;;;;;;1.20;1.00;;;5.10;98.00;;;;;;5073507;28;20463;-70
2021/03/19 11:18:21;;;;;;;1.20;1.00;;;5.20;98.00;;;;;;5072031;28;20453;-70
2021/03/19 11:20:51;;;;;;;1.20;1.17;;;5.20;98.00;;;;;;5073198;28;20460;-70
2021/03/19 11:23:23;;;;;;;1.20;1.00;;;5.20;98.00;;;;;;5070790;28;20460;-70
2021/03/19 11:25:51;;;;;;;1.50;1.07;;;5.20;98.00;;;;;;5072638;28;20972;-70
2021/03/19 11:28:36;;;;;;;1.70;1.37;;;5.20;98.00;;;;;;5071233;28;20460;-71
2021/03/19 11:31:27;;;;;;;2.93;1.73;;;5.20;98.00;;;;;;5073880;28;20552;-70
2021/03/19 11:34:17;;;;;;;1.20;0.90;;;5.10;98.00;;;;;;5070597;28;20485;-70
2021/03/19 11:36:54;;;;;;;1.20;1.07;;;5.10;98.00;;;;;;5072674;28;20510;-70
2021/03/19 11:39:33;;;;;;;1.20;1.10;;;5.00;98.00;;;;;;5071181;28;20526;-71
2021/03/19 11:42:00;;;;;;;1.20;1.00;;;4.90;98.00;;;;;;5072539;28;20457;-71
2021/03/19 11:44:27;;;;;;;1.20;0.90;;;4.90;98.00;;;;;;5071392;28;20453;-70
2021/03/19 11:47:06;;;;;;;1.20;1.10;;;4.90;98.00;;;;;;5072626;28;20480;-69
2021/03/19 11:49:34;;;;;;;1.80;1.60;;;4.90;98.00;;;;;;5072271;28;20510;-70
2021/03/19 11:52:01;;;;;;;1.40;1.20;;;4.90;98.00;;;;;;5072435;28;20460;-70
2021/03/19 11:54:28;;;;;;;1.20;0.90;;;4.90;98.00;;;;;;5069966;28;20461;-71
2021/03/19 11:56:54;;;;;;;1.30;1.30;;;4.90;98.00;;;;;;5072334;28;20460;-70
2021/03/19 11:59:24;;;;;;;1.20;1.10;;;4.90;98.00;;;;;;5070992;28;20457;-70
2021/03/19 12:01:50;;;;;;;1.20;1.00;;;5.00;98.00;;;;;;5072099;28;20982;-70
2021/03/19 12:04:19;;;;;;;1.20;1.07;;;5.00;98.00;;;;;;5070971;28;20506;-70
2021/03/19 12:06:47;;;;;;;1.57;1.53;;;5.00;98.00;;;;;;5072029;28;20456;-70
2021/03/19 12:09:13;;;;;;;1.93;1.30;;;4.90;98.00;;;;;;5071116;28;20460;-70
2021/03/19 12:11:42;;;;;;;1.50;1.20;;;4.90;98.00;;;;;;5072651;28;20974;-70
2021/03/19 12:14:17;;;;;;;1.20;1.00;;;4.80;98.00;;;;;;5071598;28;21020;-71
2021/03/19 12:16:44;;;;;;;1.20;0.90;;;4.70;98.00;;;;;;5071973;28;20962;-70
2021/03/19 12:19:10;;;;;;;2.17;1.47;;;4.60;98.00;;;;;;5070286;28;20460;-70
2021/03/19 12:21:37;;;;;;;1.30;1.07;;;4.60;98.00;;;;;;5071720;28;20829;-70
2021/03/19 12:24:05;;;;;;;4.13;2.07;;;4.60;98.00;;;;;;5070071;28;20452;-71
2021/03/19 12:26:31;;;;;;;1.20;0.90;;;4.60;98.00;;;;;;5071539;28;20983;-70
2021/03/19 12:28:58;;;;;;;1.20;1.10;;;4.70;98.00;;;;;;5069771;28;20460;-70
2021/03/19 12:31:24;;;;;;;1.60;1.30;;;4.80;98.00;;;;;;5071596;28;20887;-70
2021/03/19 12:33:51;;;;;;;1.30;1.00;;;4.80;98.00;;;;;;5070023;28;20481;-71
2021/03/19 12:36:17;;;;;;;1.30;1.30;;;5.00;98.00;;;;;;5070402;28;20593;-71
2021/03/19 12:38:44;;;;;;;4.33;1.73;;;5.10;98.00;;;;;;5070776;28;20460;-70
2021/03/19 12:41:12;;;;;;;1.57;1.47;;;5.10;98.00;;;;;;5072844;28;20453;-71
2021/03/19 12:43:40;;;;;;;1.20;1.10;;;5.10;98.00;;;;;;5071225;28;20491;-70
2021/03/19 12:46:07;;;;;;;1.40;1.13;;;5.10;98.00;;;;;;5072367;28;20563;-70
2021/03/19 12:48:34;;;;;;;1.63;1.20;;;4.90;98.00;;;;;;5070414;28;20994;-70
2021/03/19 12:51:01;;;;;;;2.50;1.30;;;4.90;98.00;;;;;;5072474;28;20457;-71
2021/03/19 12:53:30;;;;;;;1.20;1.00;;;4.80;98.00;;;;;;5068903;28;20508;-71
2021/03/19 12:56:01;;;;;;;2.07;1.30;;;4.90;98.00;;;;;;5071282;28;20456;-70
2021/03/19 12:58:28;;;;;;;1.20;1.00;;;4.90;98.00;;;;;;5069075;28;20799;-70
2021/03/19 13:00:58;;;;;;;2.57;1.10;;;4.90;98.00;;;;;;5071179;28;20457;-72
2021/03/19 13:03:26;;;;;;;1.20;1.00;;;4.90;98.00;;;;;;5069539;28;20468;-70
2021/03/19 13:05:53;;;;;;;1.20;1.10;;;4.90;98.00;;;;;;5071240;28;20460;-70
2021/03/19 13:08:20;;;;;;;1.33;1.30;;;4.80;98.00;;;;;;5069504;28;20462;-71
2021/03/19 13:10:47;;;;;;;1.40;1.20;;;4.60;98.00;;;;;;5070961;28;20514;-70
2021/03/19 13:13:14;;;;;;;1.30;1.10;;;4.60;98.00;;;;;;5069100;28;20559;-71
2021/03/19 13:15:44;;;;;;;1.20;1.00;;;4.70;98.00;;;;;;5069669;28;20452;-71
2021/03/19 13:18:13;;;;;;;1.20;1.10;;;4.70;98.00;;;;;;5069945;28;20464;-72
2021/03/19 13:20:40;;;;;;;1.20;1.00;;;4.70;98.00;;;;;;5070105;28;20471;-72
2021/03/19 13:23:07;;;;;;;1.30;1.17;;;4.70;98.00;;;;;;5070876;28;20453;-71
2021/03/19 13:25:36;;;;;;;1.20;1.10;;;4.70;98.00;;;;;;5069413;28;20939;-71
2021/03/19 13:28:03;;;;;;;1.37;1.33;;;5.00;98.00;;;;;;5070710;28;20455;-72
2021/03/19 13:30:32;;;;;;;1.20;1.10;;;4.90;98.00;;;;;;5069040;28;20461;-70
2021/03/19 13:33:00;;;;;;;1.20;1.20;;;5.10;98.00;;;;;;5070654;28;20489;-70